Time;durP1;ratioP1;P1;durP2;ratioP2;P2;SDS_P1;SDS_P2;PMS_P1;PMS_P2;Temp;Humidity;BMP_temperature;BMP_pressure;BME280_temperature;BME280_humidity;BME280_pressure;Samples;Min_cycle;Max_cycle;Signal;HPM_P1;HPM_P2
2022/06/02 00:00:24;;;;;;;17.08;11.07;;;21.20;99.90;;;;;;4973893;28;20084;-53
2022/06/02 00:03:23;;;;;;;15.65;10.80;;;21.20;99.90;;;;;;4974014;28;20034;-53
2022/06/02 00:06:16;;;;;;;16.40;10.57;;;21.30;99.90;;;;;;4973726;28;20065;-53
2022/06/02 00:09:06;;;;;;;15.25;11.60;;;21.30;99.90;;;;;;4973877;28;20023;-53
2022/06/02 00:11:53;;;;;;;17.05;11.02;;;21.30;99.90;;;;;;4993120;28;20465;-53
2022/06/02 00:14:46;;;;;;;16.45;12.15;;;21.30;99.90;;;;;;5014996;28;20034;-52
2022/06/02 00:17:29;;;;;;;;;;;21.10;99.90;;;;;;5015229;28;20022;-53
2022/06/02 00:20:20;;;;;;;14.70;11.38;;;21.10;99.90;;;;;;5015012;28;20447;-53
2022/06/02 00:23:24;;;;;;;14.20;11.18;;;21.10;99.90;;;;;;5014273;28;20057;-53
2022/06/02 00:26:22;;;;;;;15.82;12.07;;;21.10;99.90;;;;;;5014617;28;20515;-53
2022/06/02 00:29:22;;;;;;;21.15;14.93;;;21.10;99.90;;;;;;5000536;28;20046;-52
2022/06/02 00:32:06;;;;;;;24.30;17.98;;;21.20;99.90;;;;;;4973503;28;20059;-52
2022/06/02 00:34:47;;;;;;;23.15;16.05;;;21.20;99.90;;;;;;4957307;28;20046;-53
2022/06/02 00:37:18;;;;;;;23.65;16.13;;;21.30;99.90;;;;;;4957051;28;20050;-53
2022/06/02 00:39:47;;;;;;;20.95;13.68;;;21.40;99.90;;;;;;4973338;28;20038;-52
2022/06/02 00:42:24;;;;;;;15.63;11.98;;;21.40;99.90;;;;;;4973203;28;20085;-53
2022/06/02 00:44:57;;;;;;;20.02;13.15;;;21.20;99.90;;;;;;4973328;28;20042;-53
2022/06/02 00:47:40;;;;;;;14.30;12.25;;;21.20;99.90;;;;;;4973132;28;20121;-52
2022/06/02 00:50:25;;;;;;;17.80;13.25;;;21.10;99.90;;;;;;4973133;28;20510;-52
2022/06/02 00:53:17;;;;;;;20.52;14.02;;;21.10;99.90;;;;;;4973020;28;20117;-52
2022/06/02 00:58:45;;;;;;;17.48;13.70;;;21.00;99.90;;;;;;4973121;28;20034;-52
2022/06/02 01:01:14;;;;;;;17.33;13.32;;;20.90;99.90;;;;;;4972751;28;20479;-52
2022/06/02 01:03:47;;;;;;;17.98;13.50;;;20.90;99.90;;;;;;4953553;29;20039;-53
2022/06/02 01:06:18;;;;;;;18.13;12.20;;;21.00;99.90;;;;;;4953343;29;20039;-53
2022/06/02 01:08:47;;;;;;;16.42;11.85;;;21.00;99.90;;;;;;4971829;28;20034;-52
2022/06/02 01:11:18;;;;;;;17.45;13.80;;;21.00;99.90;;;;;;4992143;28;20486;-53
2022/06/02 01:13:48;;;;;;;14.90;12.20;;;21.00;99.90;;;;;;4992257;28;20049;-52
2022/06/02 01:16:22;;;;;;;22.88;14.27;;;21.00;99.90;;;;;;4992180;28;20053;-53
2022/06/02 01:19:12;;;;;;;19.45;13.18;;;21.00;99.90;;;;;;4991168;28;20092;-53
2022/06/02 01:21:43;;;;;;;16.88;12.73;;;21.00;99.90;;;;;;4992156;28;20030;-53
2022/06/02 01:24:39;;;;;;;20.65;13.95;;;21.00;99.90;;;;;;4991909;28;20132;-53
2022/06/02 01:27:42;;;;;;;20.40;12.90;;;21.00;99.90;;;;;;4992059;28;20489;-54
2022/06/02 01:30:55;;;;;;;21.48;12.57;;;21.00;99.90;;;;;;4991616;28;20097;-53
2022/06/02 01:33:23;;;;;;;16.98;12.15;;;21.00;99.90;;;;;;4953095;28;20031;-53
2022/06/02 01:35:58;;;;;;;14.88;11.93;;;21.10;99.90;;;;;;4990812;28;20049;-53
2022/06/02 01:38:51;;;;;;;17.08;12.25;;;20.90;99.90;;;;;;4991789;28;20048;-53
2022/06/02 01:41:25;;;;;;;23.60;13.85;;;20.90;99.90;;;;;;4991635;28;20046;-53
2022/06/02 01:44:03;;;;;;;17.38;12.38;;;20.80;99.90;;;;;;4991858;28;20482;-53
2022/06/02 01:46:34;;;;;;;21.20;12.50;;;20.70;99.90;;;;;;4975492;28;20038;-53
2022/06/02 01:49:21;;;;;;;18.73;13.05;;;20.70;99.90;;;;;;4991760;28;20495;-53
2022/06/02 01:52:05;;;;;;;19.23;12.32;;;20.70;99.90;;;;;;4991744;28;20026;-53
2022/06/02 01:54:50;;;;;;;20.05;12.80;;;20.80;99.90;;;;;;4991818;28;20039;-53
2022/06/02 01:57:33;;;;;;;16.05;12.85;;;20.90;99.90;;;;;;4991426;28;20054;-53
2022/06/02 02:00:12;;;;;;;19.08;14.30;;;20.70;99.90;;;;;;4991637;28;20073;-53
2022/06/02 02:02:57;;;;;;;16.38;13.02;;;20.60;99.90;;;;;;4991662;28;20049;-53
2022/06/02 02:05:45;;;;;;;18.98;13.93;;;20.60;99.90;;;;;;4991560;28;20108;-52
2022/06/02 02:08:38;;;;;;;20.88;14.20;;;20.70;99.90;;;;;;4991683;28;20026;-53
2022/06/02 02:11:45;;;;;;;18.90;13.07;;;20.70;99.90;;;;;;5013247;28;20029;-53
2022/06/02 02:14:18;;;;;;;16.10;12.77;;;20.70;99.90;;;;;;4972143;28;20078;-53
2022/06/02 02:17:11;;;;;;;19.88;13.43;;;20.80;99.90;;;;;;4972178;28;20039;-53
2022/06/02 02:20:03;;;;;;;21.27;12.48;;;20.80;99.90;;;;;;4972129;28;20138;-53
2022/06/02 02:22:40;;;;;;;17.95;12.05;;;20.70;99.90;;;;;;4914370;29;20475;-53
2022/06/02 02:25:49;;;;;;;19.00;12.25;;;20.70;99.90;;;;;;4914482;29;20034;-53
2022/06/02 02:28:42;;;;;;;17.77;11.05;;;20.60;99.90;;;;;;4876957;29;20082;-53
2022/06/02 02:31:25;;;;;;;19.52;12.10;;;20.70;99.90;;;;;;4880275;29;20069;-53
2022/06/02 02:34:00;;;;;;;22.55;12.85;;;20.80;99.90;;;;;;4880557;29;20170;-53
2022/06/02 02:36:40;;;;;;;17.50;12.15;;;20.80;99.90;;;;;;4880567;29;20552;-53
2022/06/02 02:39:43;;;;;;;17.75;12.48;;;20.90;99.90;;;;;;4880383;29;20116;-53
2022/06/02 02:42:22;;;;;;;20.02;12.30;;;20.90;99.90;;;;;;4880439;29;20045;-53
2022/06/02 02:45:28;;;;;;;19.67;13.18;;;21.00;99.90;;;;;;4880443;29;20044;-53
2022/06/02 02:48:26;;;;;;;19.50;13.70;;;20.80;99.90;;;;;;4861811;29;20170;-52
2022/06/02 02:51:18;;;;;;;16.92;13.32;;;20.60;99.90;;;;;;4879454;29;20609;-53
2022/06/02 02:53:53;;;;;;;18.13;13.00;;;20.50;99.90;;;;;;4879942;29;20040;-53
2022/06/02 02:56:21;;;;;;;20.23;12.00;;;20.40;99.90;;;;;;4880172;29;20052;-53
2022/06/02 02:59:05;;;;;;;17.10;12.48;;;20.30;99.90;;;;;;4890894;29;20043;-53
2022/06/02 03:02:05;;;;;;;17.40;12.35;;;20.40;99.90;;;;;;4898018;29;20095;-53
2022/06/02 03:04:55;;;;;;;21.40;13.00;;;20.40;99.90;;;;;;4908790;29;20088;-54
2022/06/02 03:07:22;;;;;;;16.77;12.85;;;20.50;99.90;;;;;;4917576;29;20032;-53
2022/06/02 03:09:56;;;;;;;14.82;12.73;;;20.40;99.90;;;;;;4917316;29;20047;-53
2022/06/02 03:12:40;;;;;;;15.85;12.10;;;20.40;99.90;;;;;;4917453;29;20044;-53
2022/06/02 03:15:27;;;;;;;17.35;13.23;;;20.50;99.90;;;;;;4917534;29;20052;-53
2022/06/02 03:18:05;;;;;;;23.73;12.70;;;20.60;99.90;;;;;;4920727;29;20489;-53
2022/06/02 03:20:54;;;;;;;19.67;13.07;;;20.60;99.90;;;;;;4936268;29;20164;-54
2022/06/02 03:23:40;;;;;;;15.15;12.93;;;20.60;99.90;;;;;;4936276;29;20043;-53
2022/06/02 03:26:15;;;;;;;18.30;13.48;;;20.60;99.90;;;;;;4936301;29;20028;-53
2022/06/02 03:28:55;;;;;;;20.15;13.88;;;20.60;99.90;;;;;;4936013;29;20052;-53
2022/06/02 03:31:27;;;;;;;21.08;14.38;;;20.70;99.90;;;;;;4977989;28;20042;-53
2022/06/02 03:33:55;;;;;;;;;;;20.50;99.90;;;;;;5016208;28;20029;-53
2022/06/02 03:36:32;;;;;;;19.73;12.90;;;20.40;99.90;;;;;;5013803;28;19905;-53
2022/06/02 03:39:05;;;;;;;19.30;13.48;;;20.40;99.90;;;;;;5015616;28;20022;-53
2022/06/02 03:41:34;;;;;;;22.13;14.10;;;20.30;99.90;;;;;;5012939;28;20172;-53
2022/06/02 03:44:34;;;;;;;17.35;12.75;;;20.20;99.90;;;;;;5015490;28;20370;-53
2022/06/02 03:47:21;;;;;;;21.15;13.80;;;20.10;99.90;;;;;;5015360;28;20065;-53
2022/06/02 03:49:57;;;;;;;20.40;13.25;;;20.10;99.90;;;;;;5015491;28;20022;-53
2022/06/02 03:52:47;;;;;;;22.63;13.75;;;20.20;99.90;;;;;;5015484;28;20044;-53
2022/06/02 03:56:08;;;;;;;18.98;13.13;;;20.40;99.90;;;;;;5015366;28;20105;-53
2022/06/02 03:59:00;;;;;;;21.77;13.45;;;20.50;99.90;;;;;;4967227;28;20094;-53
2022/06/02 04:01:35;;;;;;;17.40;12.23;;;20.60;99.90;;;;;;4974059;28;20086;-53
2022/06/02 04:04:25;;;;;;;17.50;12.15;;;20.60;99.90;;;;;;4973845;28;20038;-53
2022/06/02 04:07:08;;;;;;;22.48;14.45;;;20.70;99.90;;;;;;4973956;28;20495;-53
2022/06/02 04:10:10;;;;;;;17.48;13.52;;;20.80;99.90;;;;;;4974012;28;20030;-53
2022/06/02 04:16:46;;;;;;;24.17;14.68;;;20.80;99.90;;;;;;4916330;29;20043;-53
2022/06/02 04:22:40;;;;;;;21.38;14.45;;;20.70;99.90;;;;;;4916170;29;20084;-53
2022/06/02 04:25:15;;;;;;;20.95;14.15;;;20.70;99.90;;;;;;4916137;29;20044;-52
2022/06/02 04:27:52;;;;;;;28.15;14.63;;;20.80;99.90;;;;;;4916137;29;20075;-53
2022/06/02 04:30:41;;;;;;;21.60;14.38;;;20.80;99.90;;;;;;4916082;29;20508;-52
2022/06/02 04:33:24;;;;;;;18.52;14.20;;;20.70;99.90;;;;;;4948821;29;20062;-52
2022/06/02 04:36:32;;;;;;;19.70;14.80;;;20.80;99.90;;;;;;4954033;28;20178;-52
2022/06/02 04:39:12;;;;;;;25.00;15.25;;;21.00;99.90;;;;;;4954037;29;20027;-52
2022/06/02 04:41:44;;;;;;;22.88;15.40;;;21.20;99.90;;;;;;4937501;28;20082;-52
2022/06/02 04:44:33;;;;;;;;;;;21.30;99.90;;;;;;4972581;28;20046;-52
2022/06/02 04:47:23;;;;;;;18.67;14.18;;;21.50;99.90;;;;;;4973119;28;19914;-52
2022/06/02 04:49:57;;;;;;;19.20;15.40;;;21.60;99.90;;;;;;5008343;28;20068;-53
2022/06/02 04:52:49;;;;;;;21.95;14.55;;;21.80;99.90;;;;;;5034187;28;20025;-52
2022/06/02 04:55:41;;;;;;;25.77;13.50;;;22.10;99.90;;;;;;5032844;28;20025;-53
2022/06/02 04:58:34;;;;;;;22.75;15.35;;;22.30;99.90;;;;;;5014255;28;20030;-52
2022/06/02 05:01:25;;;;;;;18.20;14.02;;;22.50;99.90;;;;;;5013938;28;20045;-53
2022/06/02 05:04:00;;;;;;;19.83;14.55;;;22.60;99.90;;;;;;5014071;28;20033;-52
2022/06/02 05:06:44;;;;;;;18.30;14.63;;;22.60;99.90;;;;;;5014317;28;20022;-53
2022/06/02 05:09:35;;;;;;;20.80;15.50;;;22.60;99.90;;;;;;5013920;28;20489;-53
2022/06/02 05:12:27;;;;;;;28.52;16.55;;;22.50;99.90;;;;;;5013913;28;20026;-54
2022/06/02 05:15:09;;;;;;;29.35;18.38;;;22.50;99.90;;;;;;5013121;28;20363;-53
2022/06/02 05:18:02;;;;;;;28.40;18.13;;;22.60;99.90;;;;;;5028867;28;20386;-53
2022/06/02 05:20:58;;;;;;;25.35;17.75;;;22.70;99.90;;;;;;5013843;28;20040;-53
2022/06/02 05:23:40;;;;;;;29.10;18.92;;;22.80;99.90;;;;;;5013516;28;20069;-54
2022/06/02 05:26:29;;;;;;;21.95;16.75;;;23.00;99.90;;;;;;5013708;28;20029;-54
2022/06/02 05:29:19;;;;;;;22.80;16.63;;;23.10;99.90;;;;;;5013122;28;20053;-53
2022/06/02 05:32:20;;;;;;;24.25;17.52;;;23.20;99.90;;;;;;4995372;28;20053;-54
2022/06/02 05:34:46;;;;;;;28.58;19.45;;;23.30;99.90;;;;;;5014169;28;20101;-54
2022/06/02 05:37:36;;;;;;;23.42;16.92;;;23.30;99.90;;;;;;5027828;28;20561;-54
2022/06/02 05:40:07;;;;;;;22.70;17.98;;;23.50;99.90;;;;;;5013480;28;20036;-54
2022/06/02 05:42:54;;;;;;;25.83;18.70;;;23.60;99.90;;;;;;5013517;28;20110;-54
2022/06/02 05:45:33;;;;;;;24.75;19.00;;;23.60;99.90;;;;;;5031296;28;20108;-54
2022/06/02 05:48:01;;;;;;;21.05;15.95;;;23.80;99.90;;;;;;5030127;28;20079;-53
2022/06/02 05:50:56;;;;;;;25.40;16.42;;;23.90;99.90;;;;;;5045589;28;20042;-54
2022/06/02 05:53:34;;;;;;;19.83;14.50;;;24.10;99.90;;;;;;5031672;28;20021;-53
2022/06/02 05:56:31;;;;;;;24.50;15.45;;;24.10;99.90;;;;;;5031241;28;20026;-54
2022/06/02 05:59:21;;;;;;;21.85;15.52;;;24.30;99.90;;;;;;5032276;28;20033;-54
2022/06/02 06:02:14;;;;;;;17.75;14.15;;;24.40;99.90;;;;;;5020359;28;20042;-54
2022/06/02 06:04:46;;;;;;;21.27;16.35;;;24.40;99.90;;;;;;5018920;28;20485;-53
2022/06/02 06:07:54;;;;;;;27.35;16.08;;;24.40;99.90;;;;;;5019536;28;20061;-54
2022/06/02 06:10:38;;;;;;;20.95;15.80;;;24.40;99.90;;;;;;5034230;28;20451;-54
2022/06/02 06:13:21;;;;;;;20.88;16.50;;;24.50;99.90;;;;;;5019940;28;20040;-53
2022/06/02 06:15:57;;;;;;;19.73;16.98;;;24.50;99.90;;;;;;5037164;28;20032;-53
2022/06/02 06:18:57;;;;;;;22.52;15.10;;;24.60;99.90;;;;;;5049485;28;20520;-54
2022/06/02 06:21:56;;;;;;;20.73;14.35;;;24.70;99.90;;;;;;5016849;28;20473;-54
2022/06/02 06:24:52;;;;;;;16.65;13.13;;;24.80;99.90;;;;;;5035632;28;20021;-53
2022/06/02 06:27:25;;;;;;;20.45;11.95;;;;;;;;;;5036734;28;20021;-54
2022/06/02 06:30:09;;;;;;;17.52;10.13;;;;;;;;;;5036208;28;20465;-52
2022/06/02 06:32:54;;;;;;;15.82;9.43;;;;;;;;;;5045638;28;20064;-53
2022/06/02 06:35:45;;;;;;;15.10;9.82;;;;;;;;;;5022529;28;20112;-53
2022/06/02 06:38:11;;;;;;;12.13;9.23;;;;;;;;;;5047853;28;20038;-54
2022/06/02 06:40:56;;;;;;;13.00;8.65;;;;;;;;;;5031336;28;20029;-54
2022/06/02 06:43:55;;;;;;;13.18;7.85;;;25.20;99.90;;;;;;5033115;28;20032;-54
2022/06/02 06:46:32;;;;;;;16.20;7.28;;;25.10;99.90;;;;;;5032567;28;20029;-54
2022/06/02 06:49:21;;;;;;;13.75;6.30;;;25.10;99.90;;;;;;5030287;28;20040;-54
2022/06/02 06:52:18;;;;;;;12.70;8.15;;;25.00;99.90;;;;;;5032706;28;20025;-55
2022/06/02 06:54:52;;;;;;;11.68;7.97;;;25.00;99.90;;;;;;5032391;28;20021;-54
2022/06/02 06:57:38;;;;;;;13.15;8.43;;;25.00;99.90;;;;;;5033957;28;20450;-54
2022/06/02 07:00:19;;;;;;;15.55;7.93;;;25.30;99.90;;;;;;5025609;28;20033;-54
2022/06/02 07:03:38;;;;;;;10.33;7.43;;;25.30;99.90;;;;;;5027454;28;20573;-54
2022/06/02 07:06:21;;;;;;;14.18;7.20;;;25.60;99.90;;;;;;5026006;28;20477;-54
2022/06/02 07:09:00;;;;;;;12.68;7.53;;;25.60;99.90;;;;;;5028591;28;20486;-54
2022/06/02 07:15:03;;;;;;;13.43;7.40;;;25.70;99.90;;;;;;5010502;28;20586;-57
2022/06/02 07:18:22;;;;;;;12.75;7.38;;;25.60;99.90;;;;;;5030932;28;20037;-50
2022/06/02 07:21:28;;;;;;;13.77;7.63;;;25.70;99.90;;;;;;4955524;28;20039;-56
2022/06/02 07:23:55;;;;;;;11.68;7.00;;;;;;;;;;4955421;28;20034;-55
2022/06/02 07:26:21;;;;;;;12.00;7.35;;;;;;;;;;4955418;29;20047;-52
2022/06/02 07:28:53;;;;;;;13.55;7.88;;;;;;;;;;4955260;29;20163;-55
2022/06/02 07:31:19;;;;;;;10.10;7.05;;;;;;;;;;4955402;29;20039;-52
2022/06/02 07:34:03;;;;;;;11.90;7.43;;;;;;;;;;4955674;28;20127;-55
2022/06/02 07:36:38;;;;;;;13.45;7.57;;;;;;;;;;4943058;29;20107;-53
2022/06/02 07:39:10;;;;;;;9.93;6.18;;;;;;;;;;4936288;29;20035;-53
2022/06/02 07:42:03;;;;;;;11.80;7.43;;;;;;;;;;4936178;29;20052;-58
2022/06/02 07:44:48;;;;;;;13.38;7.28;;;;;;;;;;4936130;29;20031;-52
2022/06/02 07:47:18;;;;;;;9.13;6.22;;;;;;;;;;4953841;28;20036;-52
2022/06/02 07:49:58;;;;;;;10.23;6.13;;;26.70;99.90;;;;;;4954302;28;20054;-51
2022/06/02 07:52:55;;;;;;;7.75;5.90;;;26.80;99.90;;;;;;4935915;29;20031;-49
2022/06/02 07:55:21;;;;;;;8.60;5.88;;;26.70;99.90;;;;;;5017172;28;20048;-52
2022/06/02 07:57:58;;;;;;;16.27;7.57;;;26.60;99.90;;;;;;5026117;28;20038;-52
2022/06/02 08:00:51;;;;;;;11.20;6.95;;;26.50;99.90;;;;;;5030314;28;20068;-54
2022/06/02 08:03:48;;;;;;;15.57;7.57;;;26.70;99.90;;;;;;5006964;28;20180;-52
2022/06/02 08:06:40;;;;;;;10.68;6.57;;;26.70;99.90;;;;;;5003663;28;20129;-54
2022/06/02 08:09:36;;;;;;;12.90;7.38;;;26.80;99.90;;;;;;5005861;28;20042;-54
2022/06/02 08:12:24;;;;;;;14.02;6.80;;;;;;;;;;5011762;28;20030;-53
2022/06/02 08:15:01;;;;;;;7.00;5.30;;;27.20;99.90;;;;;;5012769;28;20049;-53
2022/06/02 08:17:46;;;;;;;9.90;5.85;;;;;;;;;;5012958;28;20030;-53
2022/06/02 08:20:33;;;;;;;10.93;6.32;;;27.30;99.90;;;;;;5013031;28;20054;-52
2022/06/02 08:23:11;;;;;;;10.45;6.35;;;;;;;;;;5012793;28;20041;-53
2022/06/02 08:25:43;;;;;;;13.20;6.78;;;;;;;;;;5011642;28;20088;-54
2022/06/02 08:28:28;;;;;;;12.63;6.47;;;;;;;;;;5012183;28;20069;-49
2022/06/02 08:31:12;;;;;;;10.13;6.22;;;;;;;;;;5012516;28;20492;-50
2022/06/02 08:33:57;;;;;;;18.75;7.50;;;;;;;;;;5012678;28;20485;-50
2022/06/02 08:36:28;;;;;;;13.05;6.00;;;;;;;;;;5012318;28;20030;-53
2022/06/02 08:39:03;;;;;;;15.23;6.45;;;;;;;;;;5012419;28;20091;-52
2022/06/02 08:41:47;;;;;;;12.68;6.80;;;27.40;99.90;;;;;;5018766;28;20057;-50
2022/06/02 08:44:28;;;;;;;11.38;6.88;;;;;;;;;;5022590;28;20037;-51
2022/06/02 08:47:20;;;;;;;10.25;5.60;;;27.90;99.90;;;;;;5030394;28;20037;-51
2022/06/02 08:50:22;;;;;;;7.93;4.68;;;27.80;99.90;;;;;;5026707;28;20037;-50
2022/06/02 08:53:22;;;;;;;11.80;6.03;;;27.60;99.90;;;;;;5034010;28;20033;-52
2022/06/02 08:56:17;;;;;;;9.05;5.55;;;27.50;99.90;;;;;;5033932;28;20037;-52
2022/06/02 08:59:01;;;;;;;9.95;5.95;;;27.70;99.90;;;;;;5031867;28;20060;-51
2022/06/02 09:01:48;;;;;;;12.23;5.75;;;27.80;99.90;;;;;;5030801;28;20072;-52
2022/06/02 09:04:31;;;;;;;9.05;6.32;;;27.70;99.90;;;;;;5031201;28;20029;-52
2022/06/02 09:06:57;;;;;;;9.60;5.90;;;;;;;;;;5029099;28;20390;-52
2022/06/02 09:09:26;;;;;;;11.10;6.85;;;;;;;;;;5030322;28;20406;-53
2022/06/02 09:12:11;;;;;;;13.90;7.35;;;;;;;;;;5030916;28;20025;-52
2022/06/02 09:14:55;;;;;;;12.63;6.72;;;;;;;;;;5023533;28;20589;-51
2022/06/02 09:17:40;;;;;;;12.20;7.00;;;;;;;;;;5027579;28;20493;-49
2022/06/02 09:20:06;;;;;;;13.23;8.93;;;;;;;;;;4998705;28;20485;-51
2022/06/02 09:22:39;;;;;;;12.85;7.30;;;;;;;;;;5027583;28;20052;-52
2022/06/02 09:25:21;;;;;;;13.32;8.15;;;;;;;;;;5031405;28;20485;-50
2022/06/02 09:28:07;;;;;;;;;;;29.10;99.90;;;;;;5030947;28;20040;-52
2022/06/02 09:30:53;;;;;;;13.52;10.15;;;28.70;99.90;;;;;;5016986;28;19956;-52
2022/06/02 09:33:43;;;;;;;8.88;6.20;;;28.70;99.90;;;;;;5030774;28;20033;-51
2022/06/02 09:36:46;;;;;;;14.93;9.95;;;28.60;99.90;;;;;;5014822;28;20042;-50
2022/06/02 09:39:45;;;;;;;11.88;9.20;;;;;;;;;;5031904;28;20033;-52
2022/06/02 09:42:30;;;;;;;11.55;8.38;;;;;;;;;;5031242;28;20605;-51
2022/06/02 09:45:19;;;;;;;12.80;8.55;;;29.40;99.90;;;;;;5047994;28;20073;-52
2022/06/02 09:48:05;;;;;;;12.52;8.10;;;;;;;;;;5031385;28;20025;-51
2022/06/02 09:51:01;;;;;;;13.07;9.38;;;29.40;99.90;;;;;;5031201;28;20029;-49
2022/06/02 09:53:30;;;;;;;13.98;9.90;;;29.70;99.90;;;;;;5031285;28;20057;-52
2022/06/02 09:55:58;;;;;;;12.65;8.50;;;29.50;99.90;;;;;;5031366;28;20029;-49
2022/06/02 09:58:43;;;;;;;11.60;9.25;;;29.20;99.90;;;;;;5047713;28;20115;-51
2022/06/02 10:01:16;;;;;;;13.95;9.93;;;29.40;99.90;;;;;;5030996;28;20518;-49
2022/06/02 10:04:03;;;;;;;16.42;9.65;;;29.60;99.90;;;;;;5031090;28;20036;-49
2022/06/02 10:07:05;;;;;;;16.48;7.80;;;29.90;99.90;;;;;;5031219;28;20401;-52
2022/06/02 10:10:10;;;;;;;11.93;9.07;;;29.50;99.90;;;;;;5031062;28;20484;-52
2022/06/02 10:13:01;;;;;;;10.10;7.53;;;29.80;99.90;;;;;;5030702;28;20041;-50
2022/06/02 10:16:03;;;;;;;10.85;8.30;;;29.50;99.90;;;;;;5014550;28;20034;-51
2022/06/02 10:18:35;;;;;;;11.13;9.30;;;29.80;99.90;;;;;;5032586;28;20044;-50
2022/06/02 10:21:16;;;;;;;13.70;8.75;;;29.90;99.90;;;;;;5032900;28;20026;-50
2022/06/02 10:23:53;;;;;;;20.30;11.20;;;;;;;;;;5033016;28;20025;-51
2022/06/02 10:26:38;;;;;;;17.20;10.80;;;30.70;99.90;;;;;;5032944;28;20259;-52
2022/06/02 10:29:12;;;;;;;16.05;11.20;;;30.80;99.90;;;;;;5032805;28;20104;-52
2022/06/02 10:31:56;;;;;;;16.02;11.95;;;30.50;99.90;;;;;;5032972;28;20544;-52
2022/06/02 10:34:37;;;;;;;15.60;11.00;;;30.40;99.90;;;;;;5032977;28;20140;-50
2022/06/02 10:37:09;;;;;;;12.97;9.93;;;30.50;99.90;;;;;;5033206;28;20025;-51
2022/06/02 10:40:13;;;;;;;17.63;11.68;;;30.40;99.90;;;;;;5032899;28;20057;-51
2022/06/02 10:43:10;;;;;;;14.88;10.07;;;30.60;99.90;;;;;;5032392;28;20433;-50
2022/06/02 10:45:48;;;;;;;14.32;8.13;;;;;;;;;;5032898;28;20026;-51
2022/06/02 10:48:49;;;;;;;15.95;10.43;;;30.70;99.90;;;;;;5032804;28;20104;-50
2022/06/02 10:51:47;;;;;;;14.13;10.65;;;30.90;99.90;;;;;;5034713;28;20061;-49
2022/06/02 10:54:37;;;;;;;11.90;9.52;;;30.80;99.90;;;;;;5050439;28;20397;-52
2022/06/02 10:57:15;;;;;;;15.65;9.73;;;;;;;;;;5035488;28;20079;-51
2022/06/02 11:00:02;;;;;;;18.08;10.27;;;31.60;99.90;;;;;;5033864;28;20140;-49
2022/06/02 11:02:49;;;;;;;15.10;11.45;;;31.40;99.90;;;;;;5031927;28;20037;-52
2022/06/02 11:05:34;;;;;;;13.82;11.07;;;31.10;99.90;;;;;;5033715;28;20120;-49
2022/06/02 11:08:24;;;;;;;15.38;9.30;;;31.10;99.90;;;;;;5033701;28;20030;-52
2022/06/02 11:11:16;;;;;;;13.65;9.50;;;31.40;99.90;;;;;;5034633;28;20033;-48
2022/06/02 11:14:00;;;;;;;16.08;10.77;;;31.10;99.90;;;;;;5033884;28;20060;-48
2022/06/02 11:16:53;;;;;;;12.07;10.82;;;31.20;99.90;;;;;;5034650;28;20037;-48
2022/06/02 11:19:37;;;;;;;12.82;9.23;;;31.10;99.90;;;;;;5031871;28;20041;-50
2022/06/02 11:22:15;;;;;;;15.55;8.80;;;31.20;99.90;;;;;;5034081;28;20436;-50
2022/06/02 11:25:19;;;;;;;15.48;10.98;;;31.30;99.90;;;;;;5033823;28;20064;-52
2022/06/02 11:27:53;;;;;;;12.13;9.60;;;31.60;99.90;;;;;;5018015;28;20120;-51
2022/06/02 11:30:45;;;;;;;20.33;9.02;;;31.70;99.90;;;;;;5049878;28;20498;-49
2022/06/02 11:33:14;;;;;;;11.05;7.88;;;31.50;99.90;;;;;;5021781;28;20172;-51
2022/06/02 11:36:07;;;;;;;14.13;9.57;;;31.40;99.90;;;;;;5035445;28;20044;-49
2022/06/02 11:38:45;;;;;;;15.50;10.52;;;31.50;99.90;;;;;;5033910;28;20044;-51
2022/06/02 11:41:20;;;;;;;10.20;9.00;;;31.50;99.90;;;;;;5035335;28;20542;-51
2022/06/02 11:43:46;;;;;;;9.77;8.15;;;31.60;99.90;;;;;;5035046;28;20025;-48
2022/06/02 11:46:27;;;;;;;12.55;10.35;;;31.70;99.90;;;;;;5033472;28;20079;-49
2022/06/02 11:49:17;;;;;;;11.63;9.70;;;31.50;99.90;;;;;;5031467;28;20029;-49
2022/06/02 11:51:43;;;;;;;11.75;9.95;;;31.90;99.90;;;;;;5034757;28;20116;-50
2022/06/02 11:54:28;;;;;;;13.57;9.80;;;32.10;99.90;;;;;;5049322;28;20503;-50
2022/06/02 11:57:02;;;;;;;14.50;9.93;;;32.40;99.90;;;;;;5032596;28;20025;-50
2022/06/02 11:59:56;;;;;;;14.93;8.27;;;32.50;99.90;;;;;;5035240;28;20436;-51
2022/06/02 12:02:47;;;;;;;17.35;8.52;;;32.40;99.90;;;;;;5034337;28;20234;-47
2022/06/02 12:05:31;;;;;;;12.73;8.45;;;32.20;99.90;;;;;;5033488;28;20431;-52
2022/06/02 12:08:09;;;;;;;15.13;9.57;;;32.30;99.90;;;;;;5033291;28;20083;-52
2022/06/02 12:11:11;;;;;;;14.75;9.15;;;32.20;99.90;;;;;;5032863;28;20389;-53
2022/06/02 12:14:00;;;;;;;13.60;10.15;;;32.10;99.90;;;;;;5033179;28;20355;-51
2022/06/02 12:17:04;;;;;;;10.25;9.15;;;32.50;99.90;;;;;;5018349;28;20033;-52
2022/06/02 12:19:38;;;;;;;11.05;8.85;;;31.90;99.90;;;;;;4977442;28;20046;-47
2022/06/02 12:22:22;;;;;;;10.52;8.48;;;31.80;99.90;;;;;;4993056;28;20042;-51
2022/06/02 12:25:18;;;;;;;11.80;7.57;;;31.90;99.90;;;;;;4993236;28;20034;-52
2022/06/02 12:28:02;;;;;;;10.20;9.07;;;31.70;99.90;;;;;;4993158;28;20070;-52
2022/06/02 12:30:39;;;;;;;9.95;7.80;;;32.30;99.90;;;;;;4992707;28;20049;-51
2022/06/02 12:33:40;;;;;;;11.63;8.20;;;32.40;99.90;;;;;;4989455;28;20475;-54
2022/06/02 12:36:35;;;;;;;14.40;9.48;;;32.20;99.90;;;;;;4965066;28;20415;-52
2022/06/02 12:39:19;;;;;;;12.57;7.38;;;32.50;99.90;;;;;;4973641;28;20170;-52
2022/06/02 12:41:53;;;;;;;7.68;6.13;;;32.70;99.90;;;;;;4973415;28;20039;-51
2022/06/02 12:44:50;;;;;;;14.13;7.88;;;32.30;99.90;;;;;;4973608;28;20422;-52
2022/06/02 12:47:36;;;;;;;11.73;7.65;;;32.50;99.90;;;;;;4973328;28;20562;-52
2022/06/02 12:50:23;;;;;;;11.93;7.65;;;32.30;99.90;;;;;;4982401;28;20038;-50
2022/06/02 12:53:01;;;;;;;12.93;6.97;;;32.10;99.90;;;;;;4981415;28;20061;-51
2022/06/02 12:55:39;;;;;;;8.65;6.70;;;32.20;99.90;;;;;;4995898;28;20104;-51
2022/06/02 12:58:14;;;;;;;10.98;5.75;;;32.10;99.90;;;;;;5014241;28;20052;-51
2022/06/02 13:00:53;;;;;;;8.57;6.45;;;32.10;99.90;;;;;;5014184;28;20425;-51
2022/06/02 13:03:25;;;;;;;16.88;8.30;;;32.10;99.90;;;;;;5014286;28;20231;-54
2022/06/02 13:06:15;;;;;;;12.52;6.70;;;32.20;99.90;;;;;;5025928;28;20033;-60
2022/06/02 13:09:02;;;;;;;10.20;6.50;;;32.00;99.90;;;;;;5045928;28;20044;-50
2022/06/02 13:11:45;;;;;;;8.63;6.20;;;31.80;99.90;;;;;;5032283;28;20389;-46
2022/06/02 13:14:27;;;;;;;8.48;6.82;;;32.10;99.90;;;;;;5031771;28;20029;-49
2022/06/02 13:17:24;;;;;;;10.38;7.13;;;32.30;99.90;;;;;;5033064;28;20018;-53
2022/06/02 13:20:13;;;;;;;10.55;7.95;;;32.00;99.90;;;;;;5027146;28;20078;-45
2022/06/02 13:22:57;;;;;;;9.98;6.80;;;31.80;99.90;;;;;;5032368;28;20045;-47
2022/06/02 13:25:37;;;;;;;11.93;8.00;;;32.10;99.90;;;;;;5032117;28;20026;-47
2022/06/02 13:28:21;;;;;;;11.95;7.47;;;32.20;99.90;;;;;;5046730;28;20037;-50
2022/06/02 13:31:13;;;;;;;11.20;7.78;;;31.90;99.90;;;;;;5033232;28;20030;-54
2022/06/02 13:33:48;;;;;;;10.75;6.90;;;32.20;99.90;;;;;;5032545;28;20032;-55
2022/06/02 13:36:29;;;;;;;8.70;7.80;;;32.00;99.90;;;;;;5033416;28;20112;-52
2022/06/02 13:39:01;;;;;;;10.15;7.78;;;32.10;99.90;;;;;;5033480;28;20026;-56
2022/06/02 13:42:01;;;;;;;9.85;7.45;;;32.00;99.90;;;;;;5027973;28;20026;-57
2022/06/02 13:44:56;;;;;;;9.43;7.63;;;32.00;99.90;;;;;;5025846;28;20127;-49
2022/06/02 13:47:59;;;;;;;10.15;7.45;;;31.90;99.90;;;;;;5029679;28;20631;-49
2022/06/02 13:50:46;;;;;;;12.35;7.72;;;31.90;99.90;;;;;;5017982;28;20038;-52
2022/06/02 13:53:36;;;;;;;9.25;8.13;;;31.70;99.90;;;;;;5013611;28;20573;-50
2022/06/02 13:59:24;;;;;;;9.80;7.20;;;31.90;99.90;;;;;;5032518;28;20090;-50
2022/06/02 14:02:27;;;;;;;9.43;6.90;;;32.00;99.90;;;;;;5020955;28;20092;-48
2022/06/02 14:05:19;;;;;;;8.68;6.85;;;31.90;99.90;;;;;;5020382;28;20025;-47
2022/06/02 14:08:09;;;;;;;10.98;7.63;;;31.40;99.90;;;;;;5031563;28;20041;-57
2022/06/02 14:11:04;;;;;;;9.73;7.43;;;31.30;99.90;;;;;;5020938;28;20022;-55
2022/06/02 14:13:44;;;;;;;12.82;8.00;;;31.40;99.90;;;;;;5028024;28;20045;-55
2022/06/02 14:16:31;;;;;;;11.23;8.05;;;31.60;99.90;;;;;;5013189;28;20381;-55
2022/06/02 14:19:16;;;;;;;10.18;6.90;;;31.90;99.90;;;;;;5013494;28;20033;-54
2022/06/02 14:21:57;;;;;;;7.75;6.30;;;32.10;99.90;;;;;;5013355;28;20041;-54
2022/06/02 14:25:07;;;;;;;10.23;6.93;;;31.80;99.90;;;;;;5031611;28;20021;-49
2022/06/02 14:27:37;;;;;;;11.77;7.13;;;31.90;99.90;;;;;;4970307;28;20041;-54
2022/06/02 14:30:16;;;;;;;9.10;7.30;;;31.80;99.90;;;;;;4984194;28;20043;-52
2022/06/02 14:32:42;;;;;;;8.73;7.78;;;31.90;99.90;;;;;;4984551;28;20086;-57
2022/06/02 14:35:42;;;;;;;11.80;7.65;;;32.10;99.90;;;;;;4976307;28;20053;-54